sensor_id;sensor_type;location;lat;lon;timestamp;P1;durP1;ratioP1;P2;durP2;ratioP2
9972;SDS011;5027;53.560;10.062;2023-05-07T00:01:48;8.63;;;7.93;;
9972;SDS011;5027;53.560;10.062;2023-05-07T00:04:15;8.90;;;8.10;;
9972;SDS011;5027;53.560;10.062;2023-05-07T00:06:42;8.93;;;8.17;;
9972;SDS011;5027;53.560;10.062;2023-05-07T00:09:08;8.80;;;8.07;;
9972;SDS011;5027;53.560;10.062;2023-05-07T00:11:35;9.20;;;8.40;;
9972;SDS011;5027;53.560;10.062;2023-05-07T00:14:02;8.23;;;7.50;;
9972;SDS011;5027;53.560;10.062;2023-05-07T00:16:29;9.47;;;8.57;;
9972;SDS011;5027;53.560;10.062;2023-05-07T00:18:56;9.90;;;8.10;;
9972;SDS011;5027;53.560;10.062;2023-05-07T00:21:22;9.30;;;8.50;;
9972;SDS011;5027;53.560;10.062;2023-05-07T00:23:53;8.13;;;7.43;;
9972;SDS011;5027;53.560;10.062;2023-05-07T00:26:20;8.57;;;7.80;;
9972;SDS011;5027;53.560;10.062;2023-05-07T00:28:49;8.57;;;7.70;;
9972;SDS011;5027;53.560;10.062;2023-05-07T00:31:15;9.20;;;8.30;;
9972;SDS011;5027;53.560;10.062;2023-05-07T00:33:44;8.60;;;7.90;;
9972;SDS011;5027;53.560;10.062;2023-05-07T00:36:10;8.50;;;7.80;;
9972;SDS011;5027;53.560;10.062;2023-05-07T00:38:37;8.57;;;7.87;;
9972;SDS011;5027;53.560;10.062;2023-05-07T00:41:04;8.60;;;7.83;;
9972;SDS011;5027;53.560;10.062;2023-05-07T00:43:31;8.97;;;8.07;;
9972;SDS011;5027;53.560;10.062;2023-05-07T00:45:58;8.80;;;7.90;;
9972;SDS011;5027;53.560;10.062;2023-05-07T00:48:25;9.73;;;8.83;;
9972;SDS011;5027;53.560;10.062;2023-05-07T00:50:52;8.83;;;8.00;;
9972;SDS011;5027;53.560;10.062;2023-05-07T00:53:19;9.60;;;8.37;;
9972;SDS011;5027;53.560;10.062;2023-05-07T00:55:46;9.07;;;8.23;;
9972;SDS011;5027;53.560;10.062;2023-05-07T00:58:14;9.13;;;8.07;;
9972;SDS011;5027;53.560;10.062;2023-05-07T01:00:41;9.17;;;8.37;;
9972;SDS011;5027;53.560;10.062;2023-05-07T01:03:07;8.63;;;7.83;;
9972;SDS011;5027;53.560;10.062;2023-05-07T01:05:35;8.70;;;7.90;;
9972;SDS011;5027;53.560;10.062;2023-05-07T01:08:02;8.47;;;7.67;;
9972;SDS011;5027;53.560;10.062;2023-05-07T01:10:30;8.77;;;7.97;;
9972;SDS011;5027;53.560;10.062;2023-05-07T01:12:57;7.97;;;7.23;;
9972;SDS011;5027;53.560;10.062;2023-05-07T01:15:25;8.67;;;7.20;;
9972;SDS011;5027;53.560;10.062;2023-05-07T01:17:52;7.20;;;6.60;;
9972;SDS011;5027;53.560;10.062;2023-05-07T01:20:25;9.73;;;7.30;;
9972;SDS011;5027;53.560;10.062;2023-05-07T01:22:55;7.90;;;7.20;;
9972;SDS011;5027;53.560;10.062;2023-05-07T01:25:23;7.63;;;7.03;;
9972;SDS011;5027;53.560;10.062;2023-05-07T01:27:53;7.33;;;6.63;;
9972;SDS011;5027;53.560;10.062;2023-05-07T01:30:24;8.10;;;7.30;;
9972;SDS011;5027;53.560;10.062;2023-05-07T01:32:53;7.70;;;7.07;;
9972;SDS011;5027;53.560;10.062;2023-05-07T01:35:27;9.33;;;7.30;;
9972;SDS011;5027;53.560;10.062;2023-05-07T01:38:00;7.43;;;6.73;;
9972;SDS011;5027;53.560;10.062;2023-05-07T01:40:30;6.87;;;6.27;;
9972;SDS011;5027;53.560;10.062;2023-05-07T01:42:57;7.27;;;6.60;;
9972;SDS011;5027;53.560;10.062;2023-05-07T01:45:24;7.80;;;6.97;;
9972;SDS011;5027;53.560;10.062;2023-05-07T01:47:51;7.03;;;6.37;;
9972;SDS011;5027;53.560;10.062;2023-05-07T01:50:19;9.97;;;7.37;;
9972;SDS011;5027;53.560;10.062;2023-05-07T01:52:47;7.57;;;6.87;;
9972;SDS011;5027;53.560;10.062;2023-05-07T01:55:15;7.30;;;6.53;;
9972;SDS011;5027;53.560;10.062;2023-05-07T01:57:42;7.97;;;7.13;;
9972;SDS011;5027;53.560;10.062;2023-05-07T02:00:09;7.50;;;6.90;;
9972;SDS011;5027;53.560;10.062;2023-05-07T02:02:43;6.83;;;6.33;;
9972;SDS011;5027;53.560;10.062;2023-05-07T02:05:21;6.80;;;6.20;;
9972;SDS011;5027;53.560;10.062;2023-05-07T02:07:54;7.60;;;6.80;;
9972;SDS011;5027;53.560;10.062;2023-05-07T02:10:21;8.00;;;7.30;;
9972;SDS011;5027;53.560;10.062;2023-05-07T02:12:48;7.63;;;6.93;;
9972;SDS011;5027;53.560;10.062;2023-05-07T02:15:15;7.87;;;7.07;;
9972;SDS011;5027;53.560;10.062;2023-05-07T02:18:01;7.23;;;6.63;;
9972;SDS011;5027;53.560;10.062;2023-05-07T02:20:33;7.80;;;7.10;;
9972;SDS011;5027;53.560;10.062;2023-05-07T02:22:59;7.50;;;6.63;;
9972;SDS011;5027;53.560;10.062;2023-05-07T02:25:28;7.30;;;6.60;;
9972;SDS011;5027;53.560;10.062;2023-05-07T02:27:56;7.33;;;6.63;;
9972;SDS011;5027;53.560;10.062;2023-05-07T02:30:33;7.23;;;6.53;;
9972;SDS011;5027;53.560;10.062;2023-05-07T02:33:00;7.43;;;6.17;;
9972;SDS011;5027;53.560;10.062;2023-05-07T02:35:27;6.43;;;5.83;;
9972;SDS011;5027;53.560;10.062;2023-05-07T02:37:54;7.53;;;6.83;;
9972;SDS011;5027;53.560;10.062;2023-05-07T02:40:23;6.27;;;5.67;;
9972;SDS011;5027;53.560;10.062;2023-05-07T02:42:50;7.43;;;6.63;;
9972;SDS011;5027;53.560;10.062;2023-05-07T02:45:17;7.03;;;6.33;;
9972;SDS011;5027;53.560;10.062;2023-05-07T02:47:44;8.47;;;6.50;;
9972;SDS011;5027;53.560;10.062;2023-05-07T02:50:12;8.27;;;7.47;;
9972;SDS011;5027;53.560;10.062;2023-05-07T02:52:39;7.03;;;6.40;;
9972;SDS011;5027;53.560;10.062;2023-05-07T02:55:06;7.30;;;6.63;;
9972;SDS011;5027;53.560;10.062;2023-05-07T02:57:36;7.87;;;6.77;;
9972;SDS011;5027;53.560;10.062;2023-05-07T03:00:13;6.90;;;6.20;;
9972;SDS011;5027;53.560;10.062;2023-05-07T03:02:49;7.07;;;6.47;;
9972;SDS011;5027;53.560;10.062;2023-05-07T03:05:15;7.70;;;7.00;;
9972;SDS011;5027;53.560;10.062;2023-05-07T03:07:43;8.70;;;7.90;;
9972;SDS011;5027;53.560;10.062;2023-05-07T03:10:12;8.50;;;7.57;;
9972;SDS011;5027;53.560;10.062;2023-05-07T03:12:39;8.13;;;7.43;;
9972;SDS011;5027;53.560;10.062;2023-05-07T03:15:06;8.63;;;7.83;;
9972;SDS011;5027;53.560;10.062;2023-05-07T03:17:34;8.13;;;7.37;;
9972;SDS011;5027;53.560;10.062;2023-05-07T03:20:01;8.33;;;7.60;;
9972;SDS011;5027;53.560;10.062;2023-05-07T03:22:28;8.17;;;7.23;;
9972;SDS011;5027;53.560;10.062;2023-05-07T03:24:55;9.50;;;8.63;;
9972;SDS011;5027;53.560;10.062;2023-05-07T03:27:22;8.33;;;7.53;;
9972;SDS011;5027;53.560;10.062;2023-05-07T03:29:51;8.43;;;7.73;;
9972;SDS011;5027;53.560;10.062;2023-05-07T03:32:19;9.10;;;8.30;;
9972;SDS011;5027;53.560;10.062;2023-05-07T03:34:46;8.67;;;7.87;;
9972;SDS011;5027;53.560;10.062;2023-05-07T03:37:13;9.47;;;8.67;;
9972;SDS011;5027;53.560;10.062;2023-05-07T03:39:41;8.43;;;7.73;;
9972;SDS011;5027;53.560;10.062;2023-05-07T03:42:08;7.63;;;6.90;;
9972;SDS011;5027;53.560;10.062;2023-05-07T03:44:36;8.30;;;7.43;;
9972;SDS011;5027;53.560;10.062;2023-05-07T03:47:03;8.57;;;7.43;;
9972;SDS011;5027;53.560;10.062;2023-05-07T03:49:31;8.13;;;7.47;;
9972;SDS011;5027;53.560;10.062;2023-05-07T03:51:58;8.03;;;7.37;;
9972;SDS011;5027;53.560;10.062;2023-05-07T03:54:25;7.90;;;7.10;;
9972;SDS011;5027;53.560;10.062;2023-05-07T03:56:52;7.23;;;6.53;;
9972;SDS011;5027;53.560;10.062;2023-05-07T03:59:19;7.40;;;6.70;;
9972;SDS011;5027;53.560;10.062;2023-05-07T04:01:47;7.53;;;6.83;;
9972;SDS011;5027;53.560;10.062;2023-05-07T04:04:17;7.83;;;7.13;;
9972;SDS011;5027;53.560;10.062;2023-05-07T04:06:44;7.43;;;6.77;;
9972;SDS011;5027;53.560;10.062;2023-05-07T04:09:11;7.80;;;7.10;;
9972;SDS011;5027;53.560;10.062;2023-05-07T04:11:38;7.70;;;7.00;;
9972;SDS011;5027;53.560;10.062;2023-05-07T04:14:08;8.10;;;7.40;;
9972;SDS011;5027;53.560;10.062;2023-05-07T04:16:35;8.20;;;7.50;;
9972;SDS011;5027;53.560;10.062;2023-05-07T04:19:03;8.37;;;7.57;;
9972;SDS011;5027;53.560;10.062;2023-05-07T04:21:31;8.23;;;7.50;;
9972;SDS011;5027;53.560;10.062;2023-05-07T04:23:58;8.07;;;7.27;;
9972;SDS011;5027;53.560;10.062;2023-05-07T04:26:24;7.90;;;7.20;;
9972;SDS011;5027;53.560;10.062;2023-05-07T04:28:51;7.47;;;6.80;;
9972;SDS011;5027;53.560;10.062;2023-05-07T04:31:18;7.87;;;7.17;;
9972;SDS011;5027;53.560;10.062;2023-05-07T04:33:48;7.30;;;6.70;;
9972;SDS011;5027;53.560;10.062;2023-05-07T04:36:17;7.77;;;7.07;;
9972;SDS011;5027;53.560;10.062;2023-05-07T04:38:52;7.07;;;6.43;;
9972;SDS011;5027;53.560;10.062;2023-05-07T04:41:19;6.50;;;5.90;;
9972;SDS011;5027;53.560;10.062;2023-05-07T04:43:47;7.50;;;6.80;;
9972;SDS011;5027;53.560;10.062;2023-05-07T04:46:15;7.13;;;6.43;;
9972;SDS011;5027;53.560;10.062;2023-05-07T04:48:43;7.53;;;6.83;;
9972;SDS011;5027;53.560;10.062;2023-05-07T04:51:10;7.23;;;6.53;;
9972;SDS011;5027;53.560;10.062;2023-05-07T04:53:37;7.80;;;7.03;;
9972;SDS011;5027;53.560;10.062;2023-05-07T04:56:04;6.27;;;5.77;;
9972;SDS011;5027;53.560;10.062;2023-05-07T04:58:37;6.80;;;6.20;;
9972;SDS011;5027;53.560;10.062;2023-05-07T05:01:04;7.87;;;7.07;;
9972;SDS011;5027;53.560;10.062;2023-05-07T05:03:31;7.37;;;6.77;;
9972;SDS011;5027;53.560;10.062;2023-05-07T05:05:58;7.17;;;6.57;;
9972;SDS011;5027;53.560;10.062;2023-05-07T05:08:29;7.53;;;6.83;;
9972;SDS011;5027;53.560;10.062;2023-05-07T05:10:57;7.57;;;6.87;;
9972;SDS011;5027;53.560;10.062;2023-05-07T05:13:24;7.33;;;6.73;;
9972;SDS011;5027;53.560;10.062;2023-05-07T05:15:51;7.30;;;6.60;;
9972;SDS011;5027;53.560;10.062;2023-05-07T05:18:18;7.33;;;6.63;;
9972;SDS011;5027;53.560;10.062;2023-05-07T05:20:45;7.40;;;6.77;;
9972;SDS011;5027;53.560;10.062;2023-05-07T05:23:11;8.60;;;6.80;;
9972;SDS011;5027;53.560;10.062;2023-05-07T05:25:38;7.97;;;7.23;;
9972;SDS011;5027;53.560;10.062;2023-05-07T05:28:09;7.27;;;6.57;;
9972;SDS011;5027;53.560;10.062;2023-05-07T05:30:35;8.00;;;6.93;;
9972;SDS011;5027;53.560;10.062;2023-05-07T05:33:02;7.53;;;6.93;;
9972;SDS011;5027;53.560;10.062;2023-05-07T05:35:29;7.83;;;7.10;;
9972;SDS011;5027;53.560;10.062;2023-05-07T05:37:58;7.63;;;6.83;;
9972;SDS011;5027;53.560;10.062;2023-05-07T05:40:24;7.50;;;6.80;;
9972;SDS011;5027;53.560;10.062;2023-05-07T05:42:51;7.70;;;6.90;;
9972;SDS011;5027;53.560;10.062;2023-05-07T05:45:18;8.53;;;7.73;;
9972;SDS011;5027;53.560;10.062;2023-05-07T05:47:45;8.57;;;7.80;;
9972;SDS011;5027;53.560;10.062;2023-05-07T05:50:12;7.73;;;7.03;;
9972;SDS011;5027;53.560;10.062;2023-05-07T05:52:39;7.97;;;7.27;;
9972;SDS011;5027;53.560;10.062;2023-05-07T05:55:07;8.03;;;7.33;;
9972;SDS011;5027;53.560;10.062;2023-05-07T05:57:36;8.23;;;7.53;;
9972;SDS011;5027;53.560;10.062;2023-05-07T06:00:04;7.77;;;7.00;;
9972;SDS011;5027;53.560;10.062;2023-05-07T06:02:32;8.40;;;7.53;;
9972;SDS011;5027;53.560;10.062;2023-05-07T06:04:59;7.80;;;7.10;;
9972;SDS011;5027;53.560;10.062;2023-05-07T06:07:26;7.40;;;6.70;;
9972;SDS011;5027;53.560;10.062;2023-05-07T06:09:53;7.00;;;6.20;;
9972;SDS011;5027;53.560;10.062;2023-05-07T06:12:20;7.50;;;6.87;;
9972;SDS011;5027;53.560;10.062;2023-05-07T06:14:47;6.83;;;6.20;;
9972;SDS011;5027;53.560;10.062;2023-05-07T06:17:15;6.60;;;6.00;;
9972;SDS011;5027;53.560;10.062;2023-05-07T06:19:43;7.40;;;6.70;;
9972;SDS011;5027;53.560;10.062;2023-05-07T06:22:11;7.50;;;6.77;;
9972;SDS011;5027;53.560;10.062;2023-05-07T06:24:38;8.70;;;7.80;;
9972;SDS011;5027;53.560;10.062;2023-05-07T06:27:07;6.80;;;6.20;;
9972;SDS011;5027;53.560;10.062;2023-05-07T06:29:34;8.70;;;6.67;;
9972;SDS011;5027;53.560;10.062;2023-05-07T06:32:08;9.07;;;8.17;;
9972;SDS011;5027;53.560;10.062;2023-05-07T06:34:38;7.63;;;6.93;;
9972;SDS011;5027;53.560;10.062;2023-05-07T06:37:06;7.07;;;6.43;;
9972;SDS011;5027;53.560;10.062;2023-05-07T06:39:46;7.13;;;6.43;;
9972;SDS011;5027;53.560;10.062;2023-05-07T06:42:13;8.03;;;7.23;;
9972;SDS011;5027;53.560;10.062;2023-05-07T06:44:42;7.13;;;6.43;;
9972;SDS011;5027;53.560;10.062;2023-05-07T06:47:15;7.00;;;6.40;;
9972;SDS011;5027;53.560;10.062;2023-05-07T06:49:44;6.57;;;5.97;;
9972;SDS011;5027;53.560;10.062;2023-05-07T06:52:14;6.83;;;6.13;;
9972;SDS011;5027;53.560;10.062;2023-05-07T06:54:41;6.60;;;6.00;;
9972;SDS011;5027;53.560;10.062;2023-05-07T06:57:08;6.10;;;5.50;;
9972;SDS011;5027;53.560;10.062;2023-05-07T06:59:34;6.73;;;6.00;;
9972;SDS011;5027;53.560;10.062;2023-05-07T07:02:01;6.67;;;6.07;;
9972;SDS011;5027;53.560;10.062;2023-05-07T07:04:28;8.23;;;6.60;;
9972;SDS011;5027;53.560;10.062;2023-05-07T07:07:03;6.13;;;5.53;;
9972;SDS011;5027;53.560;10.062;2023-05-07T07:09:29;6.57;;;5.87;;
9972;SDS011;5027;53.560;10.062;2023-05-07T07:11:59;7.23;;;6.53;;
9972;SDS011;5027;53.560;10.062;2023-05-07T07:14:26;9.07;;;5.80;;
9972;SDS011;5027;53.560;10.062;2023-05-07T07:16:53;6.90;;;6.20;;
9972;SDS011;5027;53.560;10.062;2023-05-07T07:19:21;6.67;;;6.07;;
9972;SDS011;5027;53.560;10.062;2023-05-07T07:21:51;5.93;;;5.40;;
9972;SDS011;5027;53.560;10.062;2023-05-07T07:24:18;6.30;;;5.43;;
9972;SDS011;5027;53.560;10.062;2023-05-07T07:26:50;6.30;;;5.70;;
9972;SDS011;5027;53.560;10.062;2023-05-07T07:29:19;6.03;;;5.43;;
9972;SDS011;5027;53.560;10.062;2023-05-07T07:31:47;7.93;;;6.00;;
9972;SDS011;5027;53.560;10.062;2023-05-07T07:34:17;6.73;;;5.87;;
9972;SDS011;5027;53.560;10.062;2023-05-07T07:36:43;6.37;;;5.37;;
9972;SDS011;5027;53.560;10.062;2023-05-07T07:39:15;4.67;;;4.20;;
9972;SDS011;5027;53.560;10.062;2023-05-07T07:41:43;6.67;;;5.43;;
9972;SDS011;5027;53.560;10.062;2023-05-07T07:44:10;5.60;;;5.10;;
9972;SDS011;5027;53.560;10.062;2023-05-07T07:46:43;6.23;;;5.57;;
9972;SDS011;5027;53.560;10.062;2023-05-07T07:49:09;6.47;;;5.87;;
9972;SDS011;5027;53.560;10.062;2023-05-07T07:51:36;5.63;;;5.10;;
9972;SDS011;5027;53.560;10.062;2023-05-07T07:54:04;6.00;;;5.40;;
9972;SDS011;5027;53.560;10.062;2023-05-07T07:56:32;5.57;;;5.07;;
9972;SDS011;5027;53.560;10.062;2023-05-07T07:59:01;6.47;;;5.00;;
9972;SDS011;5027;53.560;10.062;2023-05-07T08:01:29;6.27;;;5.30;;
9972;SDS011;5027;53.560;10.062;2023-05-07T08:03:57;6.67;;;5.50;;
9972;SDS011;5027;53.560;10.062;2023-05-07T08:06:26;5.00;;;4.50;;
9972;SDS011;5027;53.560;10.062;2023-05-07T08:08:53;4.93;;;4.53;;
9972;SDS011;5027;53.560;10.062;2023-05-07T08:11:21;5.20;;;4.70;;
9972;SDS011;5027;53.560;10.062;2023-05-07T08:13:48;5.70;;;5.20;;
9972;SDS011;5027;53.560;10.062;2023-05-07T08:16:15;6.17;;;5.20;;
9972;SDS011;5027;53.560;10.062;2023-05-07T08:18:42;6.13;;;4.80;;
9972;SDS011;5027;53.560;10.062;2023-05-07T08:21:09;6.77;;;5.13;;
9972;SDS011;5027;53.560;10.062;2023-05-07T08:23:36;5.40;;;4.90;;
9972;SDS011;5027;53.560;10.062;2023-05-07T08:26:03;5.67;;;5.17;;
9972;SDS011;5027;53.560;10.062;2023-05-07T08:28:31;5.90;;;5.30;;
9972;SDS011;5027;53.560;10.062;2023-05-07T08:30:57;5.43;;;4.93;;
9972;SDS011;5027;53.560;10.062;2023-05-07T08:33:30;5.50;;;5.00;;
9972;SDS011;5027;53.560;10.062;2023-05-07T08:35:57;7.93;;;5.47;;
9972;SDS011;5027;53.560;10.062;2023-05-07T08:38:24;6.07;;;5.27;;
9972;SDS011;5027;53.560;10.062;2023-05-07T08:40:51;6.00;;;5.37;;
9972;SDS011;5027;53.560;10.062;2023-05-07T08:43:19;6.77;;;5.50;;
9972;SDS011;5027;53.560;10.062;2023-05-07T08:45:47;5.90;;;5.40;;
9972;SDS011;5027;53.560;10.062;2023-05-07T08:48:19;5.73;;;5.23;;
9972;SDS011;5027;53.560;10.062;2023-05-07T08:50:58;6.20;;;5.60;;
9972;SDS011;5027;53.560;10.062;2023-05-07T08:53:25;5.70;;;5.20;;
9972;SDS011;5027;53.560;10.062;2023-05-07T08:55:53;6.13;;;5.37;;
9972;SDS011;5027;53.560;10.062;2023-05-07T08:58:20;5.50;;;5.00;;
9972;SDS011;5027;53.560;10.062;2023-05-07T09:00:47;6.40;;;4.97;;
9972;SDS011;5027;53.560;10.062;2023-05-07T09:03:14;6.07;;;5.37;;
9972;SDS011;5027;53.560;10.062;2023-05-07T09:05:45;5.90;;;5.30;;
9972;SDS011;5027;53.560;10.062;2023-05-07T09:08:14;6.20;;;5.23;;
9972;SDS011;5027;53.560;10.062;2023-05-07T09:10:44;6.00;;;5.40;;
9972;SDS011;5027;53.560;10.062;2023-05-07T09:13:11;5.53;;;5.03;;
9972;SDS011;5027;53.560;10.062;2023-05-07T09:15:40;5.43;;;4.93;;
9972;SDS011;5027;53.560;10.062;2023-05-07T09:18:08;5.27;;;4.83;;
9972;SDS011;5027;53.560;10.062;2023-05-07T09:20:37;5.23;;;4.73;;
9972;SDS011;5027;53.560;10.062;2023-05-07T09:23:05;5.97;;;5.37;;
9972;SDS011;5027;53.560;10.062;2023-05-07T09:25:34;6.37;;;5.10;;
9972;SDS011;5027;53.560;10.062;2023-05-07T09:28:07;6.50;;;4.87;;
9972;SDS011;5027;53.560;10.062;2023-05-07T09:30:36;5.13;;;4.63;;
9972;SDS011;5027;53.560;10.062;2023-05-07T09:33:06;5.67;;;5.17;;
9972;SDS011;5027;53.560;10.062;2023-05-07T09:35:37;6.17;;;4.97;;
9972;SDS011;5027;53.560;10.062;2023-05-07T09:38:08;5.27;;;4.40;;
9972;SDS011;5027;53.560;10.062;2023-05-07T09:40:36;4.50;;;4.10;;
9972;SDS011;5027;53.560;10.062;2023-05-07T09:43:08;6.20;;;4.70;;
9972;SDS011;5027;53.560;10.062;2023-05-07T09:45:40;4.80;;;4.40;;
9972;SDS011;5027;53.560;10.062;2023-05-07T09:48:08;5.90;;;4.60;;
9972;SDS011;5027;53.560;10.062;2023-05-07T09:50:47;5.60;;;5.07;;
9972;SDS011;5027;53.560;10.062;2023-05-07T09:53:20;4.60;;;4.20;;
9972;SDS011;5027;53.560;10.062;2023-05-07T09:55:49;5.23;;;4.67;;
9972;SDS011;5027;53.560;10.062;2023-05-07T09:58:19;5.30;;;4.53;;
9972;SDS011;5027;53.560;10.062;2023-05-07T10:00:49;5.60;;;5.10;;
9972;SDS011;5027;53.560;10.062;2023-05-07T10:03:18;5.80;;;4.77;;
9972;SDS011;5027;53.560;10.062;2023-05-07T10:05:55;5.33;;;4.30;;
9972;SDS011;5027;53.560;10.062;2023-05-07T10:08:24;6.07;;;5.47;;
9972;SDS011;5027;53.560;10.062;2023-05-07T10:10:55;6.77;;;5.33;;
9972;SDS011;5027;53.560;10.062;2023-05-07T10:13:24;6.07;;;5.47;;
9972;SDS011;5027;53.560;10.062;2023-05-07T10:15:54;5.50;;;5.10;;
9972;SDS011;5027;53.560;10.062;2023-05-07T10:18:23;5.77;;;5.27;;
9972;SDS011;5027;53.560;10.062;2023-05-07T10:21:02;5.10;;;4.70;;
9972;SDS011;5027;53.560;10.062;2023-05-07T10:23:34;5.70;;;5.10;;
9972;SDS011;5027;53.560;10.062;2023-05-07T10:26:02;4.73;;;4.33;;
9972;SDS011;5027;53.560;10.062;2023-05-07T10:28:33;5.03;;;4.37;;
9972;SDS011;5027;53.560;10.062;2023-05-07T10:31:08;5.07;;;4.60;;
9972;SDS011;5027;53.560;10.062;2023-05-07T10:33:42;6.53;;;5.53;;
9972;SDS011;5027;53.560;10.062;2023-05-07T10:36:10;7.33;;;5.73;;
9972;SDS011;5027;53.560;10.062;2023-05-07T10:38:37;5.43;;;4.97;;
9972;SDS011;5027;53.560;10.062;2023-05-07T10:41:06;4.80;;;4.30;;
9972;SDS011;5027;53.560;10.062;2023-05-07T10:43:41;4.70;;;4.30;;
9972;SDS011;5027;53.560;10.062;2023-05-07T10:46:15;4.80;;;4.40;;
9972;SDS011;5027;53.560;10.062;2023-05-07T10:51:37;6.80;;;4.70;;
9972;SDS011;5027;53.560;10.062;2023-05-07T10:54:20;4.70;;;4.30;;
9972;SDS011;5027;53.560;10.062;2023-05-07T10:57:06;4.23;;;3.93;;
9972;SDS011;5027;53.560;10.062;2023-05-07T11:03:07;3.97;;;3.50;;
9972;SDS011;5027;53.560;10.062;2023-05-07T11:05:43;4.07;;;3.67;;
9972;SDS011;5027;53.560;10.062;2023-05-07T11:08:19;4.50;;;4.10;;
9972;SDS011;5027;53.560;10.062;2023-05-07T11:10:56;4.00;;;3.60;;
9972;SDS011;5027;53.560;10.062;2023-05-07T11:13:43;4.17;;;3.47;;
9972;SDS011;5027;53.560;10.062;2023-05-07T11:16:22;4.17;;;3.73;;
9972;SDS011;5027;53.560;10.062;2023-05-07T11:19:01;5.27;;;4.77;;
9972;SDS011;5027;53.560;10.062;2023-05-07T11:24:16;5.40;;;4.07;;
9972;SDS011;5027;53.560;10.062;2023-05-07T11:26:51;4.90;;;4.43;;
9972;SDS011;5027;53.560;10.062;2023-05-07T11:29:20;4.20;;;3.80;;
9972;SDS011;5027;53.560;10.062;2023-05-07T11:31:54;4.30;;;3.70;;
9972;SDS011;5027;53.560;10.062;2023-05-07T11:34:25;4.20;;;3.80;;
9972;SDS011;5027;53.560;10.062;2023-05-07T11:36:54;4.47;;;3.63;;
9972;SDS011;5027;53.560;10.062;2023-05-07T11:39:35;4.10;;;3.70;;
9972;SDS011;5027;53.560;10.062;2023-05-07T11:42:02;4.47;;;4.00;;
9972;SDS011;5027;53.560;10.062;2023-05-07T11:44:44;6.77;;;3.90;;
9972;SDS011;5027;53.560;10.062;2023-05-07T11:47:18;3.50;;;3.20;;
9972;SDS011;5027;53.560;10.062;2023-05-07T11:49:47;3.73;;;3.03;;
9972;SDS011;5027;53.560;10.062;2023-05-07T11:52:15;4.87;;;4.07;;
9972;SDS011;5027;53.560;10.062;2023-05-07T11:54:50;6.23;;;5.40;;
9972;SDS011;5027;53.560;10.062;2023-05-07T11:57:17;3.97;;;3.57;;
9972;SDS011;5027;53.560;10.062;2023-05-07T11:59:44;4.17;;;3.40;;
9972;SDS011;5027;53.560;10.062;2023-05-07T12:02:11;3.20;;;3.00;;
9972;SDS011;5027;53.560;10.062;2023-05-07T12:04:40;3.20;;;2.87;;
9972;SDS011;5027;53.560;10.062;2023-05-07T12:07:11;3.47;;;3.10;;
9972;SDS011;5027;53.560;10.062;2023-05-07T12:09:39;2.80;;;2.60;;
9972;SDS011;5027;53.560;10.062;2023-05-07T12:12:07;2.90;;;2.70;;
9972;SDS011;5027;53.560;10.062;2023-05-07T12:14:41;3.60;;;2.93;;
9972;SDS011;5027;53.560;10.062;2023-05-07T12:17:10;3.47;;;3.17;;
9972;SDS011;5027;53.560;10.062;2023-05-07T12:19:39;4.00;;;3.47;;
9972;SDS011;5027;53.560;10.062;2023-05-07T12:22:08;3.97;;;2.90;;
9972;SDS011;5027;53.560;10.062;2023-05-07T12:24:48;3.60;;;3.30;;
9972;SDS011;5027;53.560;10.062;2023-05-07T12:27:16;3.20;;;2.90;;
9972;SDS011;5027;53.560;10.062;2023-05-07T12:29:48;3.23;;;2.93;;
9972;SDS011;5027;53.560;10.062;2023-05-07T12:32:18;2.77;;;2.53;;
9972;SDS011;5027;53.560;10.062;2023-05-07T12:34:49;2.87;;;2.67;;
9972;SDS011;5027;53.560;10.062;2023-05-07T12:37:23;4.80;;;2.70;;
9972;SDS011;5027;53.560;10.062;2023-05-07T12:40:04;3.00;;;2.80;;
9972;SDS011;5027;53.560;10.062;2023-05-07T12:42:35;3.13;;;2.83;;
9972;SDS011;5027;53.560;10.062;2023-05-07T12:47:37;3.10;;;2.80;;
9972;SDS011;5027;53.560;10.062;2023-05-07T12:50:07;2.77;;;2.57;;
9972;SDS011;5027;53.560;10.062;2023-05-07T12:52:34;3.07;;;2.87;;
9972;SDS011;5027;53.560;10.062;2023-05-07T12:55:04;2.90;;;2.70;;
9972;SDS011;5027;53.560;10.062;2023-05-07T12:57:39;3.10;;;2.80;;
9972;SDS011;5027;53.560;10.062;2023-05-07T13:00:07;3.47;;;3.00;;
9972;SDS011;5027;53.560;10.062;2023-05-07T13:02:39;2.73;;;2.53;;
9972;SDS011;5027;53.560;10.062;2023-05-07T13:05:07;3.93;;;2.73;;
9972;SDS011;5027;53.560;10.062;2023-05-07T13:07:35;2.90;;;2.53;;
9972;SDS011;5027;53.560;10.062;2023-05-07T13:10:03;2.53;;;2.33;;
9972;SDS011;5027;53.560;10.062;2023-05-07T13:12:30;2.93;;;2.20;;
9972;SDS011;5027;53.560;10.062;2023-05-07T13:14:57;2.70;;;2.40;;
9972;SDS011;5027;53.560;10.062;2023-05-07T13:17:25;2.73;;;2.37;;
9972;SDS011;5027;53.560;10.062;2023-05-07T13:19:51;3.87;;;2.40;;
9972;SDS011;5027;53.560;10.062;2023-05-07T13:22:18;3.03;;;2.73;;
9972;SDS011;5027;53.560;10.062;2023-05-07T13:24:45;4.10;;;3.77;;
9972;SDS011;5027;53.560;10.062;2023-05-07T13:27:11;2.60;;;2.40;;
9972;SDS011;5027;53.560;10.062;2023-05-07T13:29:38;2.60;;;2.40;;
9972;SDS011;5027;53.560;10.062;2023-05-07T13:32:05;2.30;;;2.10;;
9972;SDS011;5027;53.560;10.062;2023-05-07T13:34:32;4.47;;;2.60;;
9972;SDS011;5027;53.560;10.062;2023-05-07T13:36:58;2.50;;;2.30;;
9972;SDS011;5027;53.560;10.062;2023-05-07T13:39:28;3.23;;;2.37;;
9972;SDS011;5027;53.560;10.062;2023-05-07T13:41:54;4.53;;;2.70;;
9972;SDS011;5027;53.560;10.062;2023-05-07T13:44:21;2.60;;;2.40;;
9972;SDS011;5027;53.560;10.062;2023-05-07T13:46:48;2.50;;;2.30;;
9972;SDS011;5027;53.560;10.062;2023-05-07T13:49:14;2.63;;;2.43;;
9972;SDS011;5027;53.560;10.062;2023-05-07T13:51:41;4.20;;;2.50;;
9972;SDS011;5027;53.560;10.062;2023-05-07T13:54:08;3.50;;;2.80;;
9972;SDS011;5027;53.560;10.062;2023-05-07T13:56:34;3.63;;;2.50;;
9972;SDS011;5027;53.560;10.062;2023-05-07T13:59:01;2.90;;;2.30;;
9972;SDS011;5027;53.560;10.062;2023-05-07T14:01:28;2.40;;;2.20;;
9972;SDS011;5027;53.560;10.062;2023-05-07T14:03:55;2.60;;;2.27;;
9972;SDS011;5027;53.560;10.062;2023-05-07T14:06:24;4.00;;;2.80;;
9972;SDS011;5027;53.560;10.062;2023-05-07T14:08:51;2.80;;;2.20;;
9972;SDS011;5027;53.560;10.062;2023-05-07T14:11:17;2.70;;;2.50;;
9972;SDS011;5027;53.560;10.062;2023-05-07T14:13:45;3.17;;;2.90;;
9972;SDS011;5027;53.560;10.062;2023-05-07T14:16:11;3.00;;;2.77;;
9972;SDS011;5027;53.560;10.062;2023-05-07T14:18:38;3.20;;;2.90;;
9972;SDS011;5027;53.560;10.062;2023-05-07T14:21:05;2.50;;;2.30;;
9972;SDS011;5027;53.560;10.062;2023-05-07T14:23:35;2.40;;;2.20;;
9972;SDS011;5027;53.560;10.062;2023-05-07T14:26:02;5.20;;;2.57;;
9972;SDS011;5027;53.560;10.062;2023-05-07T14:28:29;2.97;;;2.60;;
9972;SDS011;5027;53.560;10.062;2023-05-07T14:30:55;3.60;;;3.30;;
9972;SDS011;5027;53.560;10.062;2023-05-07T14:33:22;3.13;;;2.50;;
9972;SDS011;5027;53.560;10.062;2023-05-07T14:35:49;2.77;;;2.57;;
9972;SDS011;5027;53.560;10.062;2023-05-07T14:38:16;2.83;;;2.07;;
9972;SDS011;5027;53.560;10.062;2023-05-07T14:40:43;4.30;;;2.80;;
9972;SDS011;5027;53.560;10.062;2023-05-07T14:43:10;2.60;;;2.40;;
9972;SDS011;5027;53.560;10.062;2023-05-07T14:45:37;2.80;;;2.30;;
9972;SDS011;5027;53.560;10.062;2023-05-07T14:48:04;2.47;;;2.27;;
9972;SDS011;5027;53.560;10.062;2023-05-07T14:50:31;2.70;;;2.50;;
9972;SDS011;5027;53.560;10.062;2023-05-07T14:52:57;2.57;;;2.33;;
9972;SDS011;5027;53.560;10.062;2023-05-07T14:55:26;2.93;;;2.70;;
9972;SDS011;5027;53.560;10.062;2023-05-07T14:57:53;2.50;;;2.27;;
9972;SDS011;5027;53.560;10.062;2023-05-07T15:00:21;2.47;;;2.27;;
9972;SDS011;5027;53.560;10.062;2023-05-07T15:02:48;3.00;;;2.70;;
9972;SDS011;5027;53.560;10.062;2023-05-07T15:05:15;2.60;;;2.40;;
9972;SDS011;5027;53.560;10.062;2023-05-07T15:07:43;3.07;;;2.20;;
9972;SDS011;5027;53.560;10.062;2023-05-07T15:10:11;6.87;;;5.33;;
9972;SDS011;5027;53.560;10.062;2023-05-07T15:12:38;2.60;;;2.37;;
9972;SDS011;5027;53.560;10.062;2023-05-07T15:15:04;2.17;;;1.93;;
9972;SDS011;5027;53.560;10.062;2023-05-07T15:17:32;2.93;;;2.30;;
9972;SDS011;5027;53.560;10.062;2023-05-07T15:19:59;4.67;;;2.93;;
9972;SDS011;5027;53.560;10.062;2023-05-07T15:22:26;3.50;;;3.17;;